Time;durP1;ratioP1;P1;durP2;ratioP2;P2;SDS_P1;SDS_P2;PMS_P1;PMS_P2;Temp;Humidity;BMP_temperature;BMP_pressure;BME280_temperature;BME280_humidity;BME280_pressure;Samples;Min_cycle;Max_cycle;Signal;HPM_P1;HPM_P2
2022/09/18 00:02:18;;;;;;;9.38;1.90;;;;;;;-143.48;80.16;78898.69;5074572;28;20036;-38
2022/09/18 00:04:43;;;;;;;9.43;1.80;;;;;;;-143.48;80.53;78896.69;5075303;28;20379;-37
2022/09/18 00:07:08;;;;;;;8.63;2.17;;;;;;;-143.48;80.66;78888.78;5075477;28;20028;-37
2022/09/18 00:09:34;;;;;;;11.82;1.58;;;;;;;-143.48;79.77;78888.78;5075184;28;20048;-35
2022/09/18 00:11:59;;;;;;;12.13;1.58;;;;;;;-143.48;80.71;78898.69;5075173;28;20025;-36
2022/09/18 00:14:25;;;;;;;8.38;1.60;;;;;;;-143.48;81.10;78894.72;5074711;28;20049;-37
2022/09/18 00:16:51;;;;;;;4.97;1.40;;;;;;;-143.48;80.73;78890.75;5075014;28;20036;-36
2022/09/18 00:19:17;;;;;;;8.13;1.83;;;;;;;-143.48;80.69;78888.78;5074943;28;20024;-36
2022/09/18 00:21:44;;;;;;;8.98;2.22;;;;;;;-143.48;80.49;78886.78;5074976;28;20056;-36
2022/09/18 00:24:10;;;;;;;12.57;1.75;;;;;;;-143.48;80.63;78878.84;5074705;28;20025;-37
2022/09/18 00:26:36;;;;;;;9.55;1.58;;;;;;;-143.48;80.32;78884.81;5074859;28;20039;-37
2022/09/18 00:29:02;;;;;;;7.00;1.70;;;;;;;-143.48;80.45;78892.75;5075004;28;20379;-40
2022/09/18 00:31:33;;;;;;;10.65;1.40;;;;;;;-143.48;80.30;78876.88;5074517;28;20035;-37
2022/09/18 00:34:01;;;;;;;7.38;1.42;;;;;;;-143.48;80.63;78884.81;5074524;28;20067;-39
2022/09/18 00:36:28;;;;;;;9.82;1.70;;;;;;;-143.48;80.76;78884.81;5074574;28;20027;-37
2022/09/18 00:38:54;;;;;;;6.97;1.58;;;;;;;-143.48;80.79;78890.75;5074497;28;20029;-37
2022/09/18 00:41:40;;;;;;;6.78;1.50;;;;;;;-143.48;81.55;78896.69;5074581;28;20024;-37
2022/09/18 00:44:30;;;;;;;9.70;1.70;;;;;;;-143.48;81.55;78872.91;5074001;28;20028;-37
2022/09/18 00:47:10;;;;;;;10.30;1.60;;;;;;;-143.48;80.68;78896.69;5074250;28;20428;-37
2022/09/18 00:49:39;;;;;;;10.20;1.77;;;;;;;-143.48;80.89;78896.69;5074136;28;20024;-38
2022/09/18 00:52:04;;;;;;;7.80;1.27;;;;;;;-143.48;80.77;78894.72;5074334;28;20486;-36
2022/09/18 00:54:43;;;;;;;6.32;1.55;;;;;;;-143.48;80.94;78872.91;5074393;28;20029;-36
2022/09/18 00:57:18;;;;;;;10.32;1.50;;;;;;;-143.48;80.60;78864.97;5073900;28;20028;-37
2022/09/18 00:59:46;;;;;;;10.13;1.73;;;;;;;-143.48;80.67;78878.84;5074221;28;20028;-36
2022/09/18 01:02:12;;;;;;;10.73;1.60;;;;;;;-143.48;80.74;78876.88;5074490;28;20032;-37
2022/09/18 01:04:38;;;;;;;10.90;1.77;;;;;;;-143.48;80.90;78878.84;5073877;28;20383;-36
2022/09/18 01:07:28;;;;;;;9.25;1.85;;;;;;;-143.48;80.90;78894.72;5074062;28;20028;-36
2022/09/18 01:10:08;;;;;;;13.15;2.00;;;;;;;-143.48;80.71;78884.81;5073805;28;20035;-37
2022/09/18 01:12:49;;;;;;;7.88;1.48;;;;;;;-143.48;80.66;78892.75;5073855;28;20095;-36
2022/09/18 01:15:36;;;;;;;7.07;1.55;;;;;;;-143.48;80.40;78880.84;5073902;28;20452;-36
2022/09/18 01:18:09;;;;;;;7.00;1.50;;;;;;;-143.48;80.54;78882.81;5074001;28;20025;-37
2022/09/18 01:20:53;;;;;;;11.45;1.73;;;;;;;-143.48;80.58;78884.81;5073950;28;20379;-36
2022/09/18 01:23:42;;;;;;;8.15;1.60;;;;;;;-143.48;80.84;78888.78;5073593;28;20368;-37
2022/09/18 01:26:27;;;;;;;14.68;1.73;;;;;;;-143.48;80.75;78882.81;5074138;28;20035;-37
2022/09/18 01:28:55;;;;;;;12.93;2.33;;;;;;;-143.48;81.15;78884.81;5073835;28;20020;-38
2022/09/18 01:31:41;;;;;;;13.35;2.05;;;;;;;-143.48;81.23;78882.81;5073584;28;20052;-38
2022/09/18 01:34:17;;;;;;;8.43;1.70;;;;;;;-143.48;81.33;78882.81;5073663;28;20040;-37
2022/09/18 01:36:48;;;;;;;6.60;1.90;;;;;;;-143.48;81.10;78876.88;5073394;28;20029;-37
2022/09/18 01:39:52;;;;;;;10.23;1.75;;;;;;;-143.48;81.31;78880.84;5073646;28;20028;-37
2022/09/18 01:42:21;;;;;;;12.50;1.60;;;;;;;-143.48;80.97;78872.91;5073397;28;20032;-37
2022/09/18 01:44:49;;;;;;;12.38;1.92;;;;;;;-143.48;80.36;78874.88;5073894;28;20024;-36
2022/09/18 01:47:18;;;;;;;13.07;1.77;;;;;;;-143.48;80.33;78868.94;5055404;28;20108;-36
2022/09/18 01:49:47;;;;;;;11.20;1.67;;;;;;;-143.48;80.58;78876.88;5073305;28;20491;-38
2022/09/18 01:52:22;;;;;;;15.13;2.33;;;;;;;-143.48;81.75;78892.75;5073571;28;20379;-37
2022/09/18 01:54:50;;;;;;;9.75;1.85;;;;;;;-143.48;82.25;78878.84;5073844;28;20078;-38
2022/09/18 01:57:15;;;;;;;14.50;1.90;;;;;;;-143.48;82.20;78872.91;5073250;28;20035;-36
2022/09/18 02:00:09;;;;;;;10.10;1.45;;;;;;;-143.48;82.33;78868.94;5073060;28;20033;-36
2022/09/18 02:02:42;;;;;;;8.98;1.83;;;;;;;-143.48;82.19;78876.88;5070285;28;20410;-37
2022/09/18 02:05:13;;;;;;;11.63;1.95;;;;;;;-143.48;82.43;78878.84;5056028;28;20035;-37
2022/09/18 02:07:59;;;;;;;9.75;1.40;;;;;;;-143.48;82.25;78866.94;5073122;28;20476;-37
2022/09/18 02:10:27;;;;;;;9.25;1.50;;;;;;;-143.48;82.18;78866.94;5073405;28;20428;-37
2022/09/18 02:12:55;;;;;;;11.93;1.60;;;;;;;-143.48;81.90;78859.03;5073156;28;20055;-36
2022/09/18 02:15:25;;;;;;;7.45;1.63;;;;;;;-143.48;82.13;78862.97;5073356;28;20031;-36
2022/09/18 02:17:55;;;;;;;9.93;1.67;;;;;;;-143.48;82.18;78853.06;5073633;28;20119;-36
2022/09/18 02:20:26;;;;;;;9.90;1.60;;;;;;;-143.48;82.45;78866.94;5072987;28;20025;-37
2022/09/18 02:22:55;;;;;;;5.20;1.30;;;;;;;-143.48;82.68;78866.94;5073286;28;20414;-37
2022/09/18 02:25:26;;;;;;;6.43;1.73;;;;;;;-143.48;83.17;78862.97;5073679;28;20463;-38
2022/09/18 02:27:54;;;;;;;11.63;1.80;;;;;;;-143.48;83.50;78849.09;5077449;28;20138;-37
2022/09/18 02:30:20;;;;;;;12.80;1.73;;;;;;;-143.48;82.85;78839.19;5077120;28;20023;-37
2022/09/18 02:32:45;;;;;;;10.70;1.75;;;;;;;-143.48;82.17;78837.19;5076706;28;20024;-37
2022/09/18 02:35:12;;;;;;;7.80;1.55;;;;;;;-143.48;82.40;78833.22;5076991;28;20089;-37
2022/09/18 02:37:51;;;;;;;7.45;1.50;;;;;;;-143.48;82.16;78825.31;5076664;28;20107;-37
2022/09/18 02:40:25;;;;;;;8.18;1.88;;;;;;;-143.48;82.34;78829.25;5076568;28;20046;-37
2022/09/18 02:43:27;;;;;;;7.65;1.20;;;;;;;-143.48;82.07;78837.19;5076898;28;20029;-37
2022/09/18 02:46:15;;;;;;;7.63;1.20;;;;;;;-143.48;81.87;78835.22;5077087;28;20472;-37
2022/09/18 02:48:46;;;;;;;8.60;1.33;;;;;;;-143.48;82.16;78841.16;5077067;28;20104;-36
2022/09/18 02:51:18;;;;;;;6.00;1.40;;;;;;;-143.48;82.00;78851.09;5077253;28;20107;-37
2022/09/18 02:54:00;;;;;;;4.30;1.13;;;;;;;-143.48;82.29;78849.09;5076572;28;20059;-37
2022/09/18 02:56:34;;;;;;;10.05;1.40;;;;;;;-143.48;81.99;78847.13;5076368;28;20036;-37
2022/09/18 02:59:22;;;;;;;7.45;1.30;;;;;;;-143.48;81.70;78843.16;5076233;28;20028;-37
2022/09/18 03:01:48;;;;;;;10.40;1.70;;;;;;;-143.48;82.31;78847.13;5062976;28;20048;-37
2022/09/18 03:04:20;;;;;;;8.40;1.33;;;;;;;-143.48;81.81;78841.16;5076149;28;20384;-39
2022/09/18 03:06:45;;;;;;;10.38;1.50;;;;;;;-143.48;81.76;78851.09;5076761;28;20032;-38
2022/09/18 03:09:10;;;;;;;8.57;1.33;;;;;;;-143.48;81.63;78851.09;5076481;28;20050;-37
2022/09/18 03:11:36;;;;;;;8.13;1.60;;;;;;;-143.48;81.29;78849.09;5058169;28;20095;-36
2022/09/18 03:14:02;;;;;;;6.90;1.40;;;;;;;-143.48;81.42;78845.13;5058075;28;20143;-36
2022/09/18 03:16:27;;;;;;;5.25;1.02;;;;;;;-143.48;80.92;78876.88;5076321;28;20403;-37
2022/09/18 03:18:52;;;;;;;10.75;1.50;;;;;;;-143.48;81.22;78868.94;5076158;28;20047;-37
2022/09/18 03:21:17;;;;;;;9.02;1.48;;;;;;;-143.48;80.70;78868.94;5076200;28;20033;-37
2022/09/18 03:23:43;;;;;;;6.55;1.45;;;;;;;-143.48;81.16;78866.94;5076119;28;20031;-37
2022/09/18 03:26:08;;;;;;;9.23;1.25;;;;;;;-143.48;81.15;78862.97;5076103;28;20024;-38
2022/09/18 03:28:33;;;;;;;8.77;1.30;;;;;;;-143.48;81.47;78857.03;5076462;28;20169;-36
2022/09/18 03:30:59;;;;;;;6.20;1.35;;;;;;;-143.48;81.32;78855.06;5075729;28;20017;-37
2022/09/18 03:33:24;;;;;;;7.65;1.30;;;;;;;-143.48;81.57;78843.16;5075974;28;20024;-37
2022/09/18 03:35:49;;;;;;;6.75;1.38;;;;;;;-143.48;81.61;78857.03;5057660;28;20032;-37
2022/09/18 03:38:14;;;;;;;4.28;0.85;;;;;;;-143.48;82.06;78861.00;5074215;28;20111;-38
2022/09/18 03:40:44;;;;;;;11.60;1.35;;;;;;;-143.48;81.81;78866.94;5076126;28;20028;-37
2022/09/18 03:43:10;;;;;;;6.35;1.33;;;;;;;-143.48;81.96;78859.03;5075513;28;20107;-37
2022/09/18 03:45:35;;;;;;;5.70;1.20;;;;;;;-143.48;81.66;78851.09;5075706;28;20079;-37
2022/09/18 03:48:00;;;;;;;5.45;1.10;;;;;;;-143.48;81.42;78843.16;5075377;28;20474;-37
2022/09/18 03:50:26;;;;;;;3.88;1.02;;;;;;;-143.48;81.33;78849.09;5075624;28;20036;-37
2022/09/18 03:52:51;;;;;;;6.85;1.25;;;;;;;-143.48;81.59;78843.16;5075302;28;20529;-37
2022/09/18 03:55:16;;;;;;;6.10;1.20;;;;;;;-143.48;81.53;78849.09;5075275;28;20056;-36
2022/09/18 03:57:42;;;;;;;6.90;1.00;;;;;;;-143.48;82.02;78857.03;5075727;28;20142;-37
2022/09/18 04:00:08;;;;;;;9.60;1.92;;;;;;;-143.48;81.99;78859.03;5075015;28;20029;-36
2022/09/18 04:02:34;;;;;;;11.43;1.70;;;;;;;-143.48;82.01;78884.81;5075124;28;20045;-37
2022/09/18 04:04:59;;;;;;;11.95;2.00;;;;;;;-143.48;82.59;78902.66;5057268;28;20060;-37
2022/09/18 04:07:24;;;;;;;5.13;1.20;;;;;;;-143.48;83.22;78902.66;5075484;28;20055;-37
2022/09/18 04:09:49;;;;;;;9.85;1.58;;;;;;;-143.48;83.22;78896.69;5075296;28;20079;-37
2022/09/18 04:12:15;;;;;;;8.82;1.60;;;;;;;-143.48;83.14;78892.75;5074891;28;20063;-37
2022/09/18 04:14:40;;;;;;;9.93;1.45;;;;;;;-143.48;83.26;78882.81;5074793;28;20056;-37
2022/09/18 04:17:05;;;;;;;8.77;1.15;;;;;;;-143.48;83.05;78878.84;5075170;28;20434;-37
2022/09/18 04:19:31;;;;;;;6.93;1.40;;;;;;;-143.48;83.22;78878.84;5074947;28;20029;-36
2022/09/18 04:21:56;;;;;;;7.13;1.25;;;;;;;-143.48;83.51;78888.78;5074985;28;20040;-37
2022/09/18 04:24:21;;;;;;;8.02;1.50;;;;;;;-143.48;83.68;78882.81;5075024;28;20107;-37
2022/09/18 04:26:46;;;;;;;13.57;1.75;;;;;;;-143.48;83.62;78884.81;5074897;28;20021;-37
2022/09/18 04:29:12;;;;;;;6.90;1.33;;;;;;;-143.48;83.46;78882.81;5056677;28;20024;-38
2022/09/18 04:31:37;;;;;;;7.47;1.10;;;;;;;-143.48;83.74;78868.94;5074543;28;20468;-37
2022/09/18 04:34:02;;;;;;;10.60;1.80;;;;;;;-143.48;82.93;78878.84;5074489;28;20025;-37
2022/09/18 04:36:27;;;;;;;8.27;1.60;;;;;;;-143.48;83.25;78870.91;5074619;28;20112;-37
2022/09/18 04:38:53;;;;;;;8.23;1.67;;;;;;;-143.48;83.74;78870.91;5074310;28;20017;-37
2022/09/18 04:41:18;;;;;;;6.38;1.48;;;;;;;-143.48;83.44;78872.91;5074340;28;20520;-37
2022/09/18 04:43:43;;;;;;;5.80;1.25;;;;;;;-143.48;83.38;78847.13;5074808;28;20036;-37
2022/09/18 04:46:08;;;;;;;7.22;1.30;;;;;;;-143.48;82.72;78855.06;5074253;28;20125;-37
2022/09/18 04:48:34;;;;;;;6.72;1.63;;;;;;;-143.48;83.02;78862.97;5073808;28;20025;-37
2022/09/18 04:50:59;;;;;;;5.78;1.23;;;;;;;-143.48;82.96;78864.97;5074046;28;20024;-37
2022/09/18 04:53:24;;;;;;;4.72;1.20;;;;;;;-143.48;82.93;78874.88;5074382;28;20020;-38
2022/09/18 04:55:50;;;;;;;5.88;1.30;;;;;;;-143.48;82.98;78868.94;5074360;28;20027;-36
2022/09/18 04:58:16;;;;;;;5.65;1.38;;;;;;;-143.48;83.63;78872.91;5073922;28;20016;-37
2022/09/18 05:00:41;;;;;;;6.05;1.50;;;;;;;-143.48;83.65;78866.94;5074572;28;20044;-37
2022/09/18 05:03:07;;;;;;;9.45;1.50;;;;;;;-143.48;83.50;78880.84;5074185;28;20403;-37
2022/09/18 05:05:33;;;;;;;6.90;1.60;;;;;;;-143.48;83.63;78876.88;5074460;28;20021;-37
2022/09/18 05:07:59;;;;;;;5.47;1.40;;;;;;;-143.48;83.61;78880.84;5074137;28;20395;-37
2022/09/18 05:10:25;;;;;;;5.57;1.10;;;;;;;-143.48;83.90;78872.91;5074066;28;20024;-38
2022/09/18 05:12:50;;;;;;;9.15;1.50;;;;;;;-143.48;83.58;78876.88;5073590;28;20072;-37
2022/09/18 05:15:18;;;;;;;4.53;1.02;;;;;;;-143.48;83.09;78874.88;5073747;28;20028;-36
2022/09/18 05:17:44;;;;;;;7.90;1.23;;;;;;;-143.48;82.99;78866.94;5055765;28;20040;-38
2022/09/18 05:20:10;;;;;;;4.90;1.33;;;;;;;-143.48;83.41;78868.94;5074111;28;20029;-37
2022/09/18 05:22:35;;;;;;;9.90;1.48;;;;;;;-143.48;83.41;78853.06;5073900;28;20077;-37
2022/09/18 05:25:05;;;;;;;9.40;1.10;;;;;;;-143.48;82.62;78866.94;5073522;28;20103;-37
2022/09/18 05:27:30;;;;;;;5.93;1.05;;;;;;;-143.48;82.48;78870.91;5073617;28;20120;-36
2022/09/18 05:29:55;;;;;;;6.07;1.30;;;;;;;-143.48;82.46;78874.88;5073537;28;20058;-37
2022/09/18 05:32:21;;;;;;;6.35;1.15;;;;;;;-143.48;82.33;78872.91;5074077;28;20039;-37
2022/09/18 05:34:48;;;;;;;5.47;1.25;;;;;;;-143.48;82.32;78872.91;5073433;28;20056;-37
2022/09/18 05:37:17;;;;;;;5.53;1.30;;;;;;;-143.48;82.04;78868.94;5073764;28;20031;-37
2022/09/18 05:39:42;;;;;;;6.72;0.88;;;;;;;-143.48;82.54;78868.94;5073345;28;20459;-36
2022/09/18 05:42:08;;;;;;;6.47;1.23;;;;;;;-143.48;82.39;78862.97;5055747;28;20046;-37
2022/09/18 05:44:34;;;;;;;7.32;1.35;;;;;;;-143.48;82.88;78861.00;5073638;28;20047;-37
2022/09/18 05:47:00;;;;;;;5.78;1.23;;;;;;;-143.48;83.03;78843.16;5055379;28;20016;-37
2022/09/18 05:49:25;;;;;;;5.93;1.20;;;;;;;-143.48;82.92;78837.19;5073330;28;20380;-37
2022/09/18 05:51:50;;;;;;;7.60;1.35;;;;;;;-143.48;82.67;78835.22;5073303;28;20159;-36
2022/09/18 05:54:15;;;;;;;6.70;1.08;;;;;;;-143.48;82.57;78841.16;5073299;28;20379;-36
2022/09/18 05:56:41;;;;;;;8.65;1.20;;;;;;;-143.48;82.57;78829.25;5074093;28;20068;-37
2022/09/18 05:59:06;;;;;;;7.22;1.15;;;;;;;-143.48;81.83;78827.28;5073451;28;20024;-37
2022/09/18 06:01:31;;;;;;;3.83;1.35;;;;;;;-143.48;81.65;78809.44;5076451;28;20016;-38
2022/09/18 06:03:58;;;;;;;7.78;2.50;;;;;;;-143.48;81.92;78809.44;5059411;28;20138;-37
2022/09/18 06:06:26;;;;;;;8.40;2.30;;;;;;;-143.48;81.43;78789.59;5077649;28;20028;-37
2022/09/18 06:08:51;;;;;;;6.20;2.13;;;;;;;-143.48;81.48;78797.53;5077296;28;20059;-37
2022/09/18 06:11:16;;;;;;;8.48;1.90;;;;;;;-143.48;80.87;78787.63;5077199;28;20056;-37
2022/09/18 06:13:43;;;;;;;5.93;1.50;;;;;;;-143.48;80.48;78769.75;5077159;28;20048;-37
2022/09/18 06:16:08;;;;;;;11.98;1.67;;;;;;;-143.48;79.98;78779.69;5077149;28;20025;-37
2022/09/18 06:18:33;;;;;;;7.97;1.80;;;;;;;-143.48;80.53;78781.66;5077573;28;20074;-37
2022/09/18 06:20:59;;;;;;;6.80;1.63;;;;;;;-143.48;80.94;78759.84;5076999;28;20039;-37
2022/09/18 06:23:26;;;;;;;8.02;1.77;;;;;;;-143.48;80.56;78757.88;5077301;28;20165;-37
2022/09/18 06:25:58;;;;;;;4.38;1.52;;;;;;;-143.48;80.56;78761.84;5076947;28;20475;-37
2022/09/18 06:28:24;;;;;;;5.25;1.33;;;;;;;-143.48;80.36;78753.91;5077247;28;20032;-37
2022/09/18 06:30:49;;;;;;;8.52;1.58;;;;;;;-143.48;80.36;78740.00;5077327;28;20459;-37
2022/09/18 06:33:14;;;;;;;4.75;1.38;;;;;;;-143.48;80.02;78738.03;5076816;28;20388;-37
2022/09/18 06:35:41;;;;;;;10.70;3.85;;;;;;;-143.48;80.33;78753.91;5076933;28;20103;-37
2022/09/18 06:38:06;;;;;;;11.38;4.50;;;;;;;-143.48;80.71;78747.94;5076973;28;20023;-37
2022/09/18 06:40:33;;;;;;;8.40;2.70;;;;;;;-143.48;80.61;78726.13;5076539;28;20494;-37
2022/09/18 06:43:02;;;;;;;15.00;2.33;;;;;;;-143.48;80.15;78720.19;5076606;28;20107;-38
2022/09/18 06:45:29;;;;;;;10.00;1.75;;;;;;;-143.48;80.20;78716.22;5076549;28;20056;-38
2022/09/18 06:48:02;;;;;;;8.23;1.77;;;;;;;-143.48;80.61;78716.22;5076758;28;20048;-38
2022/09/18 06:50:28;;;;;;;6.38;1.40;;;;;;;-143.48;80.71;78720.19;5076773;28;20542;-37
2022/09/18 06:52:53;;;;;;;7.40;1.75;;;;;;;-143.48;80.45;78720.19;5076364;28;20084;-37
2022/09/18 06:55:19;;;;;;;9.35;1.92;;;;;;;-143.48;80.36;78702.31;5077004;28;20107;-37
2022/09/18 06:57:54;;;;;;;9.65;1.90;;;;;;;-143.48;80.07;78692.41;5076608;28;20024;-37
2022/09/18 07:00:21;;;;;;;6.22;1.67;;;;;;;-143.48;79.74;78682.50;5076106;28;20024;-37
2022/09/18 07:02:52;;;;;;;8.70;1.98;;;;;;;-143.48;79.62;78678.53;5076471;28;20081;-37
2022/09/18 07:05:17;;;;;;;9.32;2.00;;;;;;;-143.48;78.77;78680.50;5076036;28;20028;-36
2022/09/18 07:07:44;;;;;;;8.85;1.92;;;;;;;-143.48;79.01;78684.47;5076303;28;20116;-38
2022/09/18 07:10:10;;;;;;;5.97;1.80;;;;;;;-143.48;78.56;78680.50;5075923;28;20028;-37
2022/09/18 07:12:35;;;;;;;5.10;2.10;;;;;;;-143.48;78.46;78658.69;5075423;28;20027;-37
2022/09/18 07:15:00;;;;;;;6.68;1.80;;;;;;;-143.48;78.44;78674.56;5057852;28;20139;-37
2022/09/18 07:17:26;;;;;;;8.65;1.83;;;;;;;-143.48;79.31;78674.56;5076370;28;20060;-37
2022/09/18 07:19:52;;;;;;;5.05;1.42;;;;;;;-143.48;79.26;78702.31;5075908;28;20107;-37
2022/09/18 07:22:17;;;;;;;7.55;1.63;;;;;;;-143.48;79.57;78716.22;5076211;28;20048;-37
2022/09/18 07:24:43;;;;;;;6.57;1.70;;;;;;;-143.48;79.67;78722.16;5075987;28;20031;-37
2022/09/18 07:27:08;;;;;;;8.57;1.67;;;;;;;-143.48;80.05;78712.25;5076022;28;20025;-37
2022/09/18 07:29:33;;;;;;;11.63;2.30;;;;;;;-143.48;80.16;78708.28;5075870;28;20464;-38
2022/09/18 07:31:58;;;;;;;10.27;2.28;;;;;;;-143.48;79.83;78706.28;5057616;28;20028;-37
2022/09/18 07:34:24;;;;;;;7.88;1.90;;;;;;;-143.48;78.64;78690.44;5075549;28;20099;-37
2022/09/18 07:36:49;;;;;;;5.50;1.83;;;;;;;-143.48;79.22;78666.63;5075679;28;20051;-37
2022/09/18 07:39:15;;;;;;;5.90;1.42;;;;;;;-143.48;79.71;78682.50;5075614;28;20511;-37
2022/09/18 07:41:40;;;;;;;6.22;1.92;;;;;;;-143.48;79.28;78674.56;5075533;28;20031;-37
2022/09/18 07:44:05;;;;;;;5.28;2.00;;;;;;;-143.48;79.61;78670.59;5075485;28;20460;-36
2022/09/18 07:46:31;;;;;;;13.95;2.17;;;;;;;-143.48;79.55;78676.53;5075856;28;20028;-38
2022/09/18 07:48:56;;;;;;;8.35;1.88;;;;;;;-143.48;78.96;78680.50;5075260;28;20027;-37
2022/09/18 07:51:21;;;;;;;8.98;2.28;;;;;;;-143.48;80.00;78688.44;5057199;28;20032;-37
2022/09/18 07:53:47;;;;;;;8.45;2.20;;;;;;;-143.48;79.92;78684.47;5075463;28;20036;-37
2022/09/18 07:56:12;;;;;;;7.80;1.80;;;;;;;-143.48;79.43;78674.56;5075426;28;20060;-37
2022/09/18 07:58:38;;;;;;;4.78;2.10;;;;;;;-143.48;79.07;78666.63;5075450;28;20052;-37
2022/09/18 08:01:04;;;;;;;7.20;1.70;;;;;;;-143.48;78.89;78666.63;5074984;28;20020;-37
2022/09/18 08:03:30;;;;;;;6.65;2.03;;;;;;;-143.48;79.29;78670.59;5057339;28;20028;-38
2022/09/18 08:05:56;;;;;;;6.78;1.80;;;;;;;-143.48;78.46;78688.44;5074937;28;20379;-37
2022/09/18 08:08:21;;;;;;;9.80;2.45;;;;;;;-143.48;79.35;78690.44;5074880;28;20103;-37
2022/09/18 08:10:47;;;;;;;8.57;2.47;;;;;;;-143.48;79.11;78702.31;5075157;28;20024;-38
2022/09/18 08:13:12;;;;;;;8.32;2.28;;;;;;;-143.48;78.92;78696.38;5074711;28;20055;-37
2022/09/18 08:15:39;;;;;;;8.32;2.20;;;;;;;-143.48;78.43;78710.25;5074752;28;20141;-37
2022/09/18 08:18:06;;;;;;;7.47;1.60;;;;;;;-143.48;78.05;78688.44;5075197;28;20020;-37
2022/09/18 08:20:32;;;;;;;5.32;1.60;;;;;;;-143.48;77.88;78658.69;5056910;28;20025;-37
2022/09/18 08:22:57;;;;;;;7.03;1.70;;;;;;;-143.48;78.05;78666.63;5073860;28;20028;-38
2022/09/18 08:25:23;;;;;;;4.45;1.42;;;;;;;-143.48;77.93;78654.72;5074437;28;20463;-37
2022/09/18 08:27:48;;;;;;;5.72;1.60;;;;;;;-143.48;77.62;78634.91;5074897;28;20029;-37
2022/09/18 08:30:15;;;;;;;9.00;2.20;;;;;;;-143.48;78.08;78628.94;5056476;28;20021;-36
2022/09/18 08:32:40;;;;;;;5.95;1.65;;;;;;;-143.48;78.09;78611.09;5074388;28;20020;-37
2022/09/18 08:35:09;;;;;;;6.80;1.77;;;;;;;-143.48;77.05;78634.91;5074467;28;20479;-38
2022/09/18 08:37:36;;;;;;;5.75;1.80;;;;;;;-143.48;78.29;78609.09;5073588;28;20109;-37
2022/09/18 08:40:03;;;;;;;11.68;2.53;;;;;;;-143.48;77.23;78607.13;5074157;28;20182;-37
2022/09/18 08:42:57;;;;;;;5.38;2.20;;;;;;;-143.48;77.22;78607.13;5074375;28;20028;-36
2022/09/18 08:45:37;;;;;;;5.82;1.70;;;;;;;-143.48;78.13;78621.00;5074812;28;20024;-36
2022/09/18 08:48:13;;;;;;;6.40;1.80;;;;;;;-143.48;79.31;78658.69;5074241;28;20073;-37
2022/09/18 08:50:44;;;;;;;8.82;2.20;;;;;;;-143.48;79.61;78690.44;5074506;28;20020;-37
2022/09/18 08:53:22;;;;;;;6.72;1.58;;;;;;;-143.48;80.23;78684.47;5074107;28;20323;-36
2022/09/18 08:55:50;;;;;;;5.35;1.55;;;;;;;-143.48;80.36;78698.38;5073955;28;20130;-37
2022/09/18 08:58:19;;;;;;;5.70;1.33;;;;;;;-143.48;80.46;78694.41;5072940;28;20494;-37
2022/09/18 09:01:07;;;;;;;3.42;1.13;;;;;;;-143.48;79.88;78702.31;5072937;28;20044;-36
2022/09/18 09:03:40;;;;;;;5.00;1.25;;;;;;;-143.48;79.97;78674.56;5072748;28;20024;-38
2022/09/18 09:06:27;;;;;;;5.22;1.13;;;;;;;-143.48;79.29;78654.72;5073171;28;20103;-36
2022/09/18 09:09:01;;;;;;;4.72;1.10;;;;;;;-143.48;78.71;78648.78;5073630;28;20025;-37
2022/09/18 09:11:52;;;;;;;14.80;1.10;;;;;;;-143.48;79.72;78621.00;5073714;28;20028;-38
2022/09/18 09:14:28;;;;;;;5.97;1.40;;;;;;;-143.48;77.64;78579.34;5073487;28;20093;-37
2022/09/18 09:17:13;;;;;;;5.47;1.02;;;;;;;-143.48;76.30;78563.50;5073724;28;20020;-38
2022/09/18 09:20:07;;;;;;;8.77;1.63;;;;;;;-143.48;77.33;78573.41;5073103;28;20032;-38
2022/09/18 09:22:55;;;;;;;;;;;;;;;-143.48;78.08;78567.47;5074358;28;20021;-38
2022/09/18 09:25:58;;;;;;;4.22;1.08;;;;;;;-143.48;76.30;78595.22;5073860;28;19908;-37
2022/09/18 09:28:45;;;;;;;6.55;1.55;;;;;;;-143.48;76.90;78607.13;5036798;28;20091;-37
2022/09/18 09:31:14;;;;;;;5.22;0.98;;;;;;;-143.48;78.10;78585.31;5073564;28;20030;-37
2022/09/18 09:33:56;;;;;;;9.60;1.40;;;;;;;-143.48;76.91;78579.34;5074105;28;20020;-37
2022/09/18 09:36:26;;;;;;;8.27;1.30;;;;;;;-143.48;76.61;78585.31;5073399;28;20028;-37
2022/09/18 09:38:51;;;;;;;5.95;1.60;;;;;;;-143.48;76.20;78571.44;5073317;28;20375;-37
2022/09/18 09:41:20;;;;;;;8.40;1.37;;;;;;;-143.48;75.00;78567.47;5073703;28;20077;-37
2022/09/18 09:44:15;;;;;;;6.70;1.45;;;;;;;-143.48;75.22;78577.38;5073646;28;20793;-37
2022/09/18 09:46:45;;;;;;;7.50;1.42;;;;;;;-143.48;75.95;78579.34;5068403;28;20043;-36
2022/09/18 09:49:21;;;;;;;6.88;1.20;;;;;;;-143.48;75.87;78539.69;5073913;28;20024;-37
2022/09/18 09:52:02;;;;;;;7.00;1.00;;;;;;;-143.48;74.53;78507.97;5073252;28;20028;-37
2022/09/18 09:54:29;;;;;;;10.02;1.58;;;;;;;-143.48;74.43;78480.19;5073530;28;20051;-36
2022/09/18 09:57:14;;;;;;;9.07;1.70;;;;;;;-143.48;74.43;78494.06;5073204;28;20020;-37
2022/09/18 09:59:55;;;;;;;10.02;1.35;;;;;;;-143.48;74.17;78555.56;5073212;28;20081;-37
2022/09/18 10:02:49;;;;;;;9.85;1.52;;;;;;;-143.48;73.86;78559.53;5073229;28;20154;-37
2022/09/18 10:05:27;;;;;;;5.95;1.35;;;;;;;-143.48;73.97;78547.63;5073450;28;20029;-36
2022/09/18 10:07:56;;;;;;;5.93;1.33;;;;;;;-143.48;74.30;78533.75;5073542;28;20052;-38
2022/09/18 10:10:44;;;;;;;13.18;1.45;;;;;;;-143.48;74.25;78513.91;5073079;28;20434;-37
2022/09/18 10:13:19;;;;;;;4.03;0.90;;;;;;;-143.48;72.91;78507.97;5073100;28;20044;-36
2022/09/18 10:15:51;;;;;;;3.30;0.98;;;;;;;-143.48;73.26;78507.97;5073276;28;20036;-37
2022/09/18 10:18:26;;;;;;;6.70;1.23;;;;;;;-143.48;72.83;78496.06;5073082;28;20035;-36
2022/09/18 10:20:57;;;;;;;9.50;1.48;;;;;;;-143.48;72.06;78488.13;5072900;28;20040;-37
2022/09/18 10:23:47;;;;;;;6.43;1.20;;;;;;;-143.48;73.69;78496.06;5073500;28;20025;-37
2022/09/18 10:26:24;;;;;;;3.28;1.08;;;;;;;-143.48;72.88;78468.28;5072203;28;20387;-38
2022/09/18 10:28:49;;;;;;;6.43;1.30;;;;;;;-143.48;72.28;78478.22;5055145;28;20021;-37
2022/09/18 10:31:16;;;;;;;5.88;1.10;;;;;;;-143.48;72.45;78531.75;5072889;28;20510;-38
2022/09/18 10:33:47;;;;;;;5.30;1.90;;;;;;;-143.48;73.65;78579.34;5072643;28;20054;-38
2022/09/18 10:36:21;;;;;;;11.25;1.80;;;;;;;-143.48;75.25;78609.09;5072769;28;20028;-39
2022/09/18 10:38:47;;;;;;;6.63;1.15;;;;;;;-143.48;75.83;78640.84;5073468;28;20040;-38
2022/09/18 10:41:26;;;;;;;6.97;1.40;;;;;;;-143.48;75.74;78646.78;5073081;28;20028;-38
2022/09/18 10:44:02;;;;;;;3.53;0.82;;;;;;;-143.48;75.55;78617.03;5073038;28;20028;-38
2022/09/18 10:46:31;;;;;;;6.18;0.80;;;;;;;-143.48;75.48;78619.03;5073756;28;20096;-38
2022/09/18 10:48:59;;;;;;;6.13;1.23;;;;;;;-143.48;76.11;78623.00;5076822;28;20371;-38
2022/09/18 10:51:27;;;;;;;8.82;1.38;;;;;;;-143.48;75.96;78624.97;5076550;28;20447;-37
2022/09/18 10:54:23;;;;;;;6.95;1.38;;;;;;;-143.48;76.70;78595.22;5076864;28;20082;-38
2022/09/18 10:56:48;;;;;;;6.60;1.77;;;;;;;-143.48;76.58;78587.28;5074074;28;20052;-39
2022/09/18 10:59:32;;;;;;;6.80;1.50;;;;;;;-143.48;75.34;78601.19;5076254;28;20033;-37
2022/09/18 11:02:00;;;;;;;5.10;1.90;;;;;;;-143.48;75.97;78595.22;5076459;28;20456;-37
2022/09/18 11:04:27;;;;;;;6.15;2.15;;;;;;;-143.48;75.62;78595.22;5076056;28;20042;-37
2022/09/18 11:07:01;;;;;;;7.03;1.67;;;;;;;-143.48;76.16;78601.19;5025615;28;20024;-37
2022/09/18 11:09:35;;;;;;;4.00;1.45;;;;;;;-143.48;75.66;78613.06;5076027;28;20021;-38
2022/09/18 11:12:00;;;;;;;9.10;1.92;;;;;;;-143.48;75.38;78605.16;5076501;28;20029;-37
2022/09/18 11:14:29;;;;;;;6.30;1.65;;;;;;;-143.48;74.85;78591.25;5075899;28;20086;-37
2022/09/18 11:17:02;;;;;;;6.28;1.27;;;;;;;-143.48;75.17;78603.16;5076155;28;20029;-38
2022/09/18 11:19:30;;;;;;;;;;;;;;;-143.48;75.55;78615.06;5076048;28;20029;-38
2022/09/18 11:21:59;;;;;;;6.45;1.85;;;;;;;-143.48;75.43;78595.22;5075395;28;19951;-37
2022/09/18 11:24:32;;;;;;;18.40;10.23;;;;;;;-143.48;74.62;78601.19;5075793;28;20059;-37
2022/09/18 11:27:20;;;;;;;4.10;1.25;;;;;;;-143.48;74.90;78615.06;5058360;28;20533;-38
2022/09/18 11:29:45;;;;;;;3.42;1.50;;;;;;;-143.48;75.91;78619.03;5075384;28;20402;-38
2022/09/18 11:32:17;;;;;;;5.18;1.50;;;;;;;-143.48;75.93;78623.00;5074502;28;20024;-39